createdAt,value
2023-02-27T00:00:15.043Z,-3.49
2023-02-27T00:03:20.558Z,-3.55
2023-02-27T00:06:24.159Z,-3.56
2023-02-27T00:09:28.390Z,-3.55
2023-02-27T00:12:37.642Z,-3.60
2023-02-27T00:15:41.263Z,-3.62
2023-02-27T00:18:46.161Z,-3.57
2023-02-27T00:21:49.700Z,-3.59
2023-02-27T00:24:53.159Z,-3.59
2023-02-27T00:27:56.956Z,-3.60
2023-02-27T00:31:00.503Z,-3.63
2023-02-27T00:34:05.528Z,-3.68
2023-02-27T00:37:09.161Z,-3.71
2023-02-27T00:40:14.281Z,-3.71
2023-02-27T00:43:17.736Z,-3.73
2023-02-27T00:46:21.322Z,-3.77
2023-02-27T00:49:26.476Z,-3.77
2023-02-27T00:52:30.200Z,-3.82
2023-02-27T00:55:33.729Z,-3.88
2023-02-27T00:58:37.316Z,-3.87
2023-02-27T01:01:40.801Z,-3.88
2023-02-27T01:04:45.811Z,-3.88
2023-02-27T01:07:49.313Z,-3.88
2023-02-27T01:10:54.853Z,-3.92
2023-02-27T01:13:58.401Z,-4.00
2023-02-27T01:17:02.102Z,-4.06
2023-02-27T01:20:09.888Z,-4.01
2023-02-27T01:23:13.374Z,-4.12
2023-02-27T01:26:16.907Z,-4.11
2023-02-27T01:29:20.755Z,-4.05
2023-02-27T01:32:24.383Z,-4.00
2023-02-27T01:35:29.417Z,-3.96
2023-02-27T01:38:33.278Z,-3.94
2023-02-27T01:41:36.919Z,-3.97
2023-02-27T01:45:36.418Z,-4.02
2023-02-27T01:48:41.033Z,-4.06
2023-02-27T01:51:51.966Z,-4.10
2023-02-27T01:54:57.009Z,-4.17
2023-02-27T01:58:02.294Z,-4.24
2023-02-27T02:01:06.248Z,-4.23
2023-02-27T02:04:19.755Z,-4.21
2023-02-27T02:07:25.552Z,-4.20
2023-02-27T02:10:30.590Z,-4.22
2023-02-27T02:13:35.690Z,-4.25
2023-02-27T02:17:06.002Z,-4.22
2023-02-27T02:21:17.694Z,-4.24
2023-02-27T02:28:37.304Z,-4.28
2023-02-27T02:32:22.350Z,-4.33
2023-02-27T02:36:32.570Z,-4.28
2023-02-27T02:40:19.725Z,-4.33
2023-02-27T02:43:32.487Z,-4.34
2023-02-27T02:46:49.180Z,-4.39
2023-02-27T02:50:00.955Z,-4.49
2023-02-27T02:53:17.353Z,-4.40
2023-02-27T02:56:30.613Z,-4.36
2023-02-27T02:59:40.113Z,-4.44
2023-02-27T03:02:50.349Z,-4.44
2023-02-27T03:06:02.187Z,-4.36
2023-02-27T03:09:15.631Z,-4.39
2023-02-27T03:12:27.018Z,-4.36
2023-02-27T03:15:39.788Z,-4.40
2023-02-27T03:18:51.616Z,-4.46
2023-02-27T03:22:03.905Z,-4.50
2023-02-27T03:25:13.437Z,-4.53
2023-02-27T03:28:23.776Z,-4.45
2023-02-27T03:31:35.206Z,-4.48
2023-02-27T03:34:43.787Z,-4.52
2023-02-27T03:37:59.698Z,-4.53
2023-02-27T03:41:16.073Z,-4.53
2023-02-27T03:44:31.310Z,-4.50
2023-02-27T03:47:36.492Z,-4.57
2023-02-27T03:50:40.406Z,-4.55
2023-02-27T03:53:53.380Z,-4.61
2023-02-27T03:57:02.618Z,-4.66
2023-02-27T04:00:15.257Z,-4.69
2023-02-27T04:03:19.409Z,-4.67
2023-02-27T04:06:40.771Z,-4.61
2023-02-27T04:10:17.659Z,-4.56
2023-02-27T04:13:55.870Z,-4.54
2023-02-27T04:17:19.370Z,-4.57
2023-02-27T04:20:44.441Z,-4.58
2023-02-27T04:23:58.623Z,-4.66
2023-02-27T04:27:14.249Z,-4.73
2023-02-27T04:30:31.453Z,-4.75
2023-02-27T04:33:46.962Z,-4.78
2023-02-27T04:37:01.454Z,-4.76
2023-02-27T04:40:12.041Z,-4.73
2023-02-27T04:43:17.499Z,-4.75
2023-02-27T04:46:27.659Z,-4.69
2023-02-27T04:49:37.659Z,-4.69
2023-02-27T04:52:47.840Z,-4.73
2023-02-27T04:55:56.184Z,-4.73
2023-02-27T04:59:05.611Z,-4.74
2023-02-27T05:02:16.043Z,-4.77
2023-02-27T05:05:28.439Z,-4.85
2023-02-27T05:08:42.221Z,-4.86
2023-02-27T05:11:56.038Z,-4.85
2023-02-27T05:15:07.225Z,-4.89
2023-02-27T05:18:15.435Z,-4.88
2023-02-27T05:21:29.451Z,-4.88
2023-02-27T05:24:46.934Z,-4.96
2023-02-27T05:27:58.144Z,-4.96
2023-02-27T05:31:11.128Z,-5.02
2023-02-27T05:34:24.829Z,-4.97
2023-02-27T05:37:36.240Z,-4.94
2023-02-27T05:40:46.422Z,-5.04
2023-02-27T05:43:55.616Z,-5.06
2023-02-27T05:47:05.779Z,-5.06
2023-02-27T05:50:17.525Z,-5.06
2023-02-27T05:53:31.137Z,-5.06
2023-02-27T05:56:38.325Z,-5.06
2023-02-27T05:59:52.145Z,-5.11
2023-02-27T06:02:55.908Z,-5.16
2023-02-27T06:06:03.772Z,-5.11
2023-02-27T06:09:09.617Z,-5.06
2023-02-27T06:12:13.273Z,-5.05
2023-02-27T06:15:17.475Z,-5.00
2023-02-27T06:18:21.889Z,-4.97
2023-02-27T06:21:25.581Z,-5.01
2023-02-27T06:24:30.605Z,-5.00
2023-02-27T06:27:34.177Z,-4.92
2023-02-27T06:30:38.338Z,-5.02
2023-02-27T06:33:42.003Z,-5.02
2023-02-27T06:36:45.713Z,-4.93
2023-02-27T06:39:50.725Z,-4.97
2023-02-27T06:42:54.671Z,-4.93
2023-02-27T06:45:58.535Z,-4.85
2023-02-27T06:49:02.310Z,-4.87
2023-02-27T06:52:06.124Z,-4.78
2023-02-27T06:55:12.999Z,-4.78
2023-02-27T06:58:17.046Z,-4.73
2023-02-27T07:01:20.706Z,-4.63
2023-02-27T07:04:24.368Z,-4.51
2023-02-27T07:07:35.534Z,-4.50
2023-02-27T07:10:44.071Z,-4.42
2023-02-27T07:13:47.656Z,-4.33
2023-02-27T07:16:55.082Z,-4.24
2023-02-27T07:19:58.966Z,-4.21
2023-02-27T07:23:02.634Z,-4.12
2023-02-27T07:26:07.861Z,-3.96
2023-02-27T07:29:11.963Z,-3.83
2023-02-27T07:32:15.844Z,-3.66
2023-02-27T07:35:19.918Z,-3.48
2023-02-27T07:38:24.149Z,-3.29
2023-02-27T07:41:30.948Z,-3.19
2023-02-27T07:44:34.904Z,-3.05
2023-02-27T07:47:38.560Z,-2.95
2023-02-27T07:50:42.178Z,-2.75
2023-02-27T07:53:45.930Z,-2.56
2023-02-27T07:56:51.031Z,-2.43
2023-02-27T07:59:54.750Z,-2.27
2023-02-27T08:02:58.595Z,-2.14
2023-02-27T08:06:02.597Z,-2.07
2023-02-27T08:09:07.304Z,-1.88
2023-02-27T08:12:13.061Z,-1.75
2023-02-27T08:15:17.710Z,-1.60
2023-02-27T08:18:21.384Z,-1.46
2023-02-27T08:21:25.340Z,-1.29
2023-02-27T08:24:29.300Z,-1.20
2023-02-27T08:27:34.419Z,-1.07
2023-02-27T08:30:38.144Z,-0.85
2023-02-27T08:33:41.964Z,-0.74
2023-02-27T08:36:45.649Z,-0.61
2023-02-27T08:39:49.375Z,-0.35
2023-02-27T08:42:54.433Z,-0.36
2023-02-27T08:45:58.146Z,-0.18
2023-02-27T08:49:01.864Z,0.00
2023-02-27T08:52:05.659Z,0.10
2023-02-27T08:55:10.751Z,0.25
2023-02-27T08:58:17.190Z,0.47
2023-02-27T09:01:22.069Z,0.63
2023-02-27T09:04:26.374Z,0.94
2023-02-27T09:07:30.024Z,1.04
2023-02-27T09:10:34.030Z,1.15
2023-02-27T09:13:39.045Z,1.29
2023-02-27T09:16:42.907Z,1.29
2023-02-27T09:19:46.517Z,1.42
2023-02-27T09:22:50.214Z,1.50
2023-02-27T09:25:54.010Z,1.36
2023-02-27T09:28:59.088Z,1.34
2023-02-27T09:32:03.204Z,1.37
2023-02-27T09:35:09.571Z,1.37
2023-02-27T09:38:13.799Z,1.27
2023-02-27T09:41:43.457Z,1.53
2023-02-27T09:44:52.268Z,1.69
2023-02-27T09:48:02.187Z,1.82
2023-02-27T09:51:06.710Z,1.77
2023-02-27T09:54:13.601Z,2.03
2023-02-27T09:57:24.082Z,2.07
2023-02-27T10:00:48.805Z,2.06
2023-02-27T10:04:28.567Z,2.17
2023-02-27T10:07:41.671Z,2.22
2023-02-27T10:11:00.370Z,2.33
2023-02-27T10:14:25.160Z,2.42
2023-02-27T10:17:35.674Z,2.44
2023-02-27T10:20:47.831Z,2.47
2023-02-27T10:23:59.073Z,2.63
2023-02-27T10:27:07.786Z,2.68
2023-02-27T10:30:30.423Z,2.67
2023-02-27T10:33:40.621Z,2.73
2023-02-27T10:36:46.797Z,2.85
2023-02-27T10:39:57.814Z,2.90
2023-02-27T10:43:06.333Z,3.02
2023-02-27T10:46:17.590Z,3.04
2023-02-27T10:49:23.469Z,3.26
2023-02-27T10:52:27.712Z,3.03
2023-02-27T10:55:34.041Z,3.07
2023-02-27T10:58:39.292Z,3.44
2023-02-27T11:01:46.178Z,3.50
2023-02-27T11:04:56.179Z,3.45
2023-02-27T11:08:21.743Z,3.35
2023-02-27T11:11:30.057Z,3.22
2023-02-27T11:14:34.958Z,3.51
2023-02-27T11:17:38.687Z,3.68
2023-02-27T11:20:44.228Z,3.42
2023-02-27T11:24:01.078Z,3.62
2023-02-27T11:27:20.878Z,3.67
2023-02-27T11:30:28.555Z,3.71
2023-02-27T11:33:39.965Z,3.84
2023-02-27T11:36:48.620Z,3.88
2023-02-27T11:39:58.645Z,3.86
2023-02-27T11:43:08.718Z,3.99
2023-02-27T11:46:47.328Z,3.92
2023-02-27T11:50:32.887Z,4.18
2023-02-27T11:54:07.292Z,4.00
2023-02-27T11:57:26.634Z,4.09
2023-02-27T12:00:40.860Z,4.06
2023-02-27T12:03:57.548Z,4.28
2023-02-27T12:07:11.884Z,4.32
2023-02-27T12:10:22.918Z,4.05
2023-02-27T12:13:32.418Z,4.28
2023-02-27T12:16:42.846Z,4.20
2023-02-27T12:20:01.927Z,3.90
2023-02-27T12:23:20.584Z,3.96
2023-02-27T12:26:33.322Z,4.23
2023-02-27T12:29:45.124Z,4.28
2023-02-27T12:32:58.115Z,4.57
2023-02-27T12:36:05.742Z,4.57
2023-02-27T12:39:20.694Z,4.50
2023-02-27T12:42:56.713Z,4.95
2023-02-27T12:46:36.953Z,5.02
2023-02-27T12:49:53.189Z,5.08
2023-02-27T12:53:16.828Z,4.91
2023-02-27T12:56:24.264Z,4.77
2023-02-27T12:59:47.310Z,4.92
2023-02-27T13:03:06.388Z,4.86
2023-02-27T13:06:21.954Z,4.98
2023-02-27T13:09:38.265Z,4.74
2023-02-27T13:12:49.163Z,4.68
2023-02-27T13:16:00.857Z,4.94
2023-02-27T13:19:15.456Z,5.00
2023-02-27T13:22:33.932Z,5.03
2023-02-27T13:25:43.289Z,5.08
2023-02-27T13:28:47.986Z,5.02
2023-02-27T13:32:02.650Z,4.86
2023-02-27T13:35:24.913Z,4.88
2023-02-27T13:38:41.976Z,4.67
2023-02-27T13:41:45.653Z,4.69
2023-02-27T13:44:50.360Z,4.28
2023-02-27T13:47:56.904Z,4.42
2023-02-27T13:51:01.791Z,4.59
2023-02-27T13:54:20.939Z,4.73
2023-02-27T13:57:27.819Z,4.84
2023-02-27T14:00:34.628Z,4.83
2023-02-27T14:03:42.178Z,4.84
2023-02-27T14:06:49.061Z,4.80
2023-02-27T14:10:03.696Z,4.59
2023-02-27T14:13:46.941Z,4.73
2023-02-27T14:17:03.573Z,4.81
2023-02-27T14:20:14.125Z,4.94
2023-02-27T14:23:25.877Z,4.89
2023-02-27T14:26:29.840Z,4.84
2023-02-27T14:29:36.264Z,4.78
2023-02-27T14:32:41.514Z,4.87
2023-02-27T14:35:48.585Z,4.97
2023-02-27T14:38:57.794Z,4.89
2023-02-27T14:42:27.511Z,4.99
2023-02-27T14:45:32.180Z,4.93
2023-02-27T14:48:38.295Z,4.94
2023-02-27T14:51:41.960Z,4.77
2023-02-27T14:54:45.819Z,4.81
2023-02-27T14:57:57.867Z,4.73
2023-02-27T15:01:07.326Z,4.72
2023-02-27T15:04:21.127Z,4.69
2023-02-27T15:07:27.510Z,4.74
2023-02-27T15:10:33.375Z,4.59
2023-02-27T15:13:40.470Z,4.71
2023-02-27T15:16:44.167Z,4.60
2023-02-27T15:19:52.392Z,4.57
2023-02-27T15:22:56.231Z,4.55
2023-02-27T15:26:01.526Z,4.55
2023-02-27T15:29:07.700Z,4.57
2023-02-27T15:32:22.400Z,4.61
2023-02-27T15:35:36.906Z,4.62
2023-02-27T15:38:40.563Z,4.58
2023-02-27T15:41:48.591Z,4.67
2023-02-27T15:44:53.585Z,4.64
2023-02-27T15:47:57.887Z,4.55
2023-02-27T15:51:05.787Z,4.39
2023-02-27T15:54:12.199Z,4.28
2023-02-27T15:57:16.071Z,4.24
2023-02-27T16:00:23.025Z,4.26
2023-02-27T16:03:30.889Z,4.25
2023-02-27T16:06:40.163Z,4.50
2023-02-27T16:09:47.024Z,4.64
2023-02-27T16:12:52.372Z,4.63
2023-02-27T16:16:05.171Z,4.56
2023-02-27T16:19:27.905Z,4.33
2023-02-27T16:22:32.891Z,4.24
2023-02-27T16:25:37.211Z,4.11
2023-02-27T16:28:51.790Z,4.05
2023-02-27T16:31:58.667Z,4.04
2023-02-27T16:35:06.206Z,4.02
2023-02-27T16:38:13.102Z,3.98
2023-02-27T16:41:20.023Z,3.94
2023-02-27T16:44:24.549Z,3.90
2023-02-27T16:47:29.009Z,3.87
2023-02-27T16:50:40.538Z,3.86
2023-02-27T16:53:48.061Z,3.77
2023-02-27T16:56:52.735Z,3.84
2023-02-27T16:59:57.439Z,3.70
2023-02-27T17:03:01.221Z,3.66
2023-02-27T17:06:05.290Z,3.55
2023-02-27T17:09:12.237Z,3.52
2023-02-27T17:12:15.938Z,3.48
2023-02-27T17:15:20.060Z,3.51
2023-02-27T17:18:23.803Z,3.43
2023-02-27T17:21:27.699Z,3.36
2023-02-27T17:24:32.735Z,3.31
2023-02-27T17:27:36.918Z,3.32
2023-02-27T17:30:42.282Z,3.29
2023-02-27T17:33:45.907Z,3.26
2023-02-27T17:36:51.064Z,3.20
2023-02-27T17:39:56.161Z,3.13
2023-02-27T17:42:59.822Z,3.03
2023-02-27T17:46:06.573Z,2.94
2023-02-27T17:49:10.227Z,2.85
2023-02-27T17:52:13.957Z,2.77
2023-02-27T17:55:19.076Z,2.66
2023-02-27T17:58:22.735Z,2.58
2023-02-27T18:01:27.101Z,2.45
2023-02-27T18:04:30.842Z,2.43
2023-02-27T18:07:34.738Z,2.28
2023-02-27T18:10:39.899Z,2.14
2023-02-27T18:13:44.307Z,2.10
2023-02-27T18:16:48.065Z,1.96
2023-02-27T18:19:51.777Z,1.87
2023-02-27T18:22:55.330Z,1.73
2023-02-27T18:26:01.509Z,1.59
2023-02-27T18:29:08.706Z,1.49
2023-02-27T18:32:12.839Z,1.45
2023-02-27T18:35:17.023Z,1.38
2023-02-27T18:38:20.721Z,1.27
2023-02-27T18:41:25.822Z,1.21
2023-02-27T18:44:29.422Z,1.14
2023-02-27T18:47:33.029Z,1.06
2023-02-27T18:50:36.801Z,1.04
2023-02-27T18:53:43.679Z,0.97
2023-02-27T18:56:51.596Z,0.95
2023-02-27T18:59:55.339Z,0.90
2023-02-27T19:02:59.072Z,0.88
2023-02-27T19:06:02.914Z,0.85
2023-02-27T19:09:07.151Z,0.85
2023-02-27T19:12:12.202Z,0.82
2023-02-27T19:15:23.609Z,0.84
2023-02-27T19:18:27.318Z,0.90
2023-02-27T19:21:31.000Z,0.93
2023-02-27T19:24:34.715Z,0.91
2023-02-27T19:27:40.591Z,1.13
2023-02-27T19:30:44.346Z,1.16
2023-02-27T19:33:48.047Z,1.23
2023-02-27T19:36:51.649Z,1.31
2023-02-27T19:39:55.277Z,1.34
2023-02-27T19:43:00.331Z,1.45
2023-02-27T19:46:06.800Z,1.54
2023-02-27T19:49:12.025Z,1.59
2023-02-27T19:52:15.701Z,1.71
2023-02-27T19:55:19.663Z,1.72
2023-02-27T19:58:24.581Z,1.75
2023-02-27T20:01:32.590Z,1.79
2023-02-27T20:04:36.220Z,1.77
2023-02-27T20:07:40.489Z,1.82
2023-02-27T20:10:44.547Z,1.85
2023-02-27T20:13:50.331Z,1.86
2023-02-27T20:16:54.297Z,1.91
2023-02-27T20:19:57.999Z,1.92
2023-02-27T20:23:01.640Z,1.91
2023-02-27T20:26:16.883Z,1.96
2023-02-27T20:29:24.990Z,1.97
2023-02-27T20:32:28.930Z,1.98
2023-02-27T20:35:32.638Z,2.03
2023-02-27T20:38:39.088Z,2.05
2023-02-27T20:41:42.803Z,2.05
2023-02-27T20:44:50.447Z,2.03
2023-02-27T20:47:54.048Z,2.06
2023-02-27T20:50:57.645Z,2.08
2023-02-27T20:54:01.892Z,2.05
2023-02-27T20:57:05.739Z,2.03
2023-02-27T21:00:13.023Z,2.05
2023-02-27T21:03:16.625Z,2.03
2023-02-27T21:06:20.723Z,2.04
2023-02-27T21:09:24.421Z,2.10
2023-02-27T21:12:28.144Z,2.11
2023-02-27T21:15:36.259Z,2.13
2023-02-27T21:18:40.205Z,2.12
2023-02-27T21:21:43.915Z,2.09
2023-02-27T21:24:53.731Z,2.11
2023-02-27T21:28:02.194Z,2.10
2023-02-27T21:31:08.903Z,2.10
2023-02-27T21:34:17.371Z,2.10
2023-02-27T21:37:20.975Z,2.09
2023-02-27T21:40:24.804Z,2.07
2023-02-27T21:43:28.433Z,2.06
2023-02-27T21:46:34.732Z,2.05
2023-02-27T21:49:39.433Z,2.03
2023-02-27T21:52:43.352Z,2.02
2023-02-27T21:55:47.074Z,2.00
2023-02-27T21:58:51.514Z,2.01
2023-02-27T22:01:56.629Z,1.99
2023-02-27T22:05:00.517Z,1.98
2023-02-27T22:08:04.208Z,1.96
2023-02-27T22:11:09.109Z,1.88
2023-02-27T22:14:13.936Z,1.77
2023-02-27T22:17:18.921Z,1.73
2023-02-27T22:20:22.619Z,1.67
2023-02-27T22:23:27.105Z,1.70
2023-02-27T22:26:30.941Z,1.74
2023-02-27T22:29:34.642Z,1.76
2023-02-27T22:32:42.138Z,1.79
2023-02-27T22:35:45.862Z,1.81
2023-02-27T22:38:50.647Z,1.83
2023-02-27T22:41:56.531Z,1.85
2023-02-27T22:45:00.517Z,1.85
2023-02-27T22:48:06.102Z,1.82
2023-02-27T22:51:12.777Z,1.85
2023-02-27T22:54:18.518Z,1.84
2023-02-27T22:57:22.125Z,1.86
2023-02-27T23:00:26.030Z,1.84
2023-02-27T23:03:31.588Z,1.81
2023-02-27T23:06:39.966Z,1.82
2023-02-27T23:09:43.881Z,1.78
2023-02-27T23:12:47.607Z,1.77
2023-02-27T23:15:51.246Z,1.78
2023-02-27T23:18:59.461Z,1.82
2023-02-27T23:22:03.039Z,1.70
2023-02-27T23:25:09.243Z,1.64
2023-02-27T23:28:13.225Z,1.67
2023-02-27T23:31:16.939Z,1.68
2023-02-27T23:34:21.902Z,1.68
2023-02-27T23:37:25.561Z,1.67
2023-02-27T23:40:29.872Z,1.68
2023-02-27T23:43:33.475Z,1.66
2023-02-27T23:46:37.326Z,1.66
2023-02-27T23:49:42.350Z,1.61
2023-02-27T23:52:45.915Z,1.56
2023-02-27T23:55:49.656Z,1.63
2023-02-27T23:58:57.302Z,1.73
